Map

Track Data

SID SEASON NUMBER BASIN SUBBASIN NAME ISO_TIME NATURE LAT LON WMO_WIND WMO_PRES WMO_AGENCY TRACK_TYPE DIST2LAND LANDFALL IFLAG USA_AGENCY USA_ATCF_ID USA_LAT USA_LON USA_RECORD USA_STATUS USA_WIND USA_PRES USA_SSHS USA_R34_NE USA_R34_SE USA_R34_SW USA_R34_NW USA_R50_NE USA_R50_SE USA_R50_SW USA_R50_NW USA_R64_NE USA_R64_SE USA_R64_SW USA_R64_NW USA_POCI USA_ROCI USA_RMW USA_EYE TOKYO_LAT TOKYO_LON TOKYO_GRADE TOKYO_WIND TOKYO_PRES TOKYO_R50_DIR TOKYO_R50_LONG TOKYO_R50_SHORT TOKYO_R30_DIR TOKYO_R30_LONG TOKYO_R30_SHORT TOKYO_LAND CMA_LAT CMA_LON CMA_CAT CMA_WIND CMA_PRES HKO_LAT HKO_LON HKO_CAT HKO_WIND HKO_PRES NEWDELHI_LAT NEWDELHI_LON NEWDELHI_GRADE NEWDELHI_WIND NEWDELHI_PRES NEWDELHI_CI NEWDELHI_DP NEWDELHI_POCI REUNION_LAT REUNION_LON REUNION_TYPE REUNION_WIND REUNION_PRES REUNION_TNUM REUNION_CI REUNION_RMW REUNION_R34_NE REUNION_R34_SE REUNION_R34_SW REUNION_R34_NW REUNION_R50_NE REUNION_R50_SE REUNION_R50_SW REUNION_R50_NW REUNION_R64_NE REUNION_R64_SE REUNION_R64_SW REUNION_R64_NW BOM_LAT BOM_LON BOM_TYPE BOM_WIND BOM_PRES BOM_TNUM BOM_CI BOM_RMW BOM_R34_NE BOM_R34_SE BOM_R34_SW BOM_R34_NW BOM_R50_NE BOM_R50_SE BOM_R50_SW BOM_R50_NW BOM_R64_NE BOM_R64_SE BOM_R64_SW BOM_R64_NW BOM_ROCI BOM_POCI BOM_EYE BOM_POS_METHOD BOM_PRES_METHOD NADI_LAT NADI_LON NADI_CAT NADI_WIND NADI_PRES WELLINGTON_LAT WELLINGTON_LON WELLINGTON_WIND WELLINGTON_PRES DS824_LAT DS824_LON DS824_STAGE DS824_WIND DS824_PRES TD9636_LAT TD9636_LON TD9636_STAGE TD9636_WIND TD9636_PRES TD9635_LAT TD9635_LON TD9635_WIND TD9635_PRES TD9635_ROCI NEUMANN_LAT NEUMANN_LON NEUMANN_CLASS NEUMANN_WIND NEUMANN_PRES MLC_LAT MLC_LON MLC_CLASS MLC_WIND MLC_PRES USA_GUST BOM_GUST BOM_GUST_PER REUNION_GUST REUNION_GUST_PER USA_SEAHGT USA_SEARAD_NE USA_SEARAD_SE USA_SEARAD_SW USA_SEARAD_NW STORM_SPEED STORM_DIR
1962211N09153 1962 57 WP MM OPAL 1962-07-30 00:00:00 TS 8.50000 152.600 main 1269 1264 __O___________ -1 8.50000 152.600 1 29 1002 8 276
1962211N09153 1962 57 WP MM OPAL 1962-07-30 03:00:00 TS 8.54004 152.220 main 1263 1262 __P___________ -1 8.54004 152.220 1 29 1002 12 276
1962211N09153 1962 57 WP MM OPAL 1962-07-30 06:00:00 TS 8.62857 151.429 1002 tokyo main 1267 1267 OOO______O_O__ jtwc_wp WP101962 8.70000 151.200 25 -1 8.50000 151.000 2 1002 0 0 0 8.60000 151.800 1 29 1002 8.70000 151.200 TC 25 8.70000 151.200 25 999 240 13 278
1962211N09153 1962 57 WP MM OPAL 1962-07-30 09:00:00 TS 8.71673 150.929 main 1270 1265 PPP______P_P__ WP101962 8.75013 150.740 25 -1 8.66499 150.725 2 1002 0 0 8.69249 151.315 1 29 1002 8.75013 150.740 TC 25 8.75013 150.740 25 998 240 10 280
1962211N09153 1962 57 WP MM OPAL 1962-07-30 12:00:00 TS 8.80000 150.422 1002 tokyo main 1265 1257 OOOO_____OOO__ jtwc_wp WP101962 8.80000 150.300 25 -1 8.80000 150.400 2 1002 0 0 0 8.80000 150.800 1 29 1002 8.80000 150.200 TD 25 1002 8.80000 150.300 TC 25 8.80000 150.300 1 25 8.80000 150.300 25 998 240 10 279
1962211N09153 1962 57 WP MM OPAL 1962-07-30 15:00:00 TS 8.87256 149.970 main 1265 1256 PPPP_____PPP__ WP101962 8.84993 149.893 25 -1 8.89255 150.000 2 1001 0 0 8.90743 150.300 1 29 1001 8.91018 149.733 TD 25 1001 8.84993 149.893 TC 25 8.86094 149.952 1 26 8.84993 149.893 25 997 270 9 279
1962211N09153 1962 57 WP MM OPAL 1962-07-30 18:00:00 TS 8.94432 149.548 1000 tokyo main 1254 1254 OOOO_____OPO__ jtwc_wp WP101962 8.90000 149.500 25 -1 9.00000 149.600 2 1000 0 0 0 9.00000 149.800 1 29 1000 9.00000 149.300 TD 25 1000 8.90000 149.500 TC 25 8.91741 149.583 1 27 8.90000 149.500 25 997 300 8 280
1962211N09153 1962 57 WP MM OPAL 1962-07-30 21:00:00 TS 9.01740 149.157 main 1259 1256 PPPP_____PPP__ WP101962 8.95740 149.115 27 -1 9.16968 149.352 2 1000 0 0 9.05737 149.315 1 29 1000 9.05735 148.915 TD 25 1000 8.95740 149.115 TC 27 8.96520 149.172 1 28 8.95740 149.115 27 996 330 8 280
1962211N09153 1962 57 WP MM OPAL 1962-07-31 00:00:00 TS 9.08571 148.729 1000 tokyo main 1263 1258 OOOO_____OOO__ jtwc_wp WP101962 9.00000 148.700 30 -1 9.40000 149.000 2 1000 0 0 0 9.10000 148.800 1 29 1000 9.10000 148.500 TD 25 1000 9.00000 148.700 TC 30 9.00000 148.700 1 30 9.00000 148.700 30 996 360 10 277
1962211N09153 1962 57 WP MM OPAL 1962-07-31 03:00:00 TS 9.13926 148.200 main 1258 1257 PPPP_____PPP__ WP101962 8.99985 148.245 30 -1 9.65519 148.317 2 1000 0 0 9.14997 148.215 1 29 1000 9.14997 147.980 TD 25 1000 8.99985 148.245 TC 30 9.02015 148.153 1 30 8.99985 148.245 30 995 360 11 276
1962211N09153 1962 57 WP MM OPAL 1962-07-31 06:00:00 TS 9.20503 147.593 1000 tokyo main 1266 1266 OOOO_____OPO__ jtwc_wp WP101962 9.00000 147.700 30 -1 10.0000 147.500 2 1000 0 0 0 9.20000 147.600 1 29 1000 9.20000 147.400 TD 25 1000 9.00000 147.700 TC 30 9.03520 147.552 1 30 9.00000 147.700 30 995 360 13 278
1962211N09153 1962 57 WP MM OPAL 1962-07-31 09:00:00 TS 9.31426 146.938 main 1277 1277 PPPP_____PPP__ WP101962 9.03510 147.015 30 -1 10.5447 146.766 2 1000 0 0 9.24232 147.015 1 29 1000 9.24990 146.815 TD 25 1000 9.03510 147.015 TC 30 9.05760 146.925 1 30 9.03510 147.015 30 994 330 13 280
1962211N09153 1962 57 WP MM OPAL 1962-07-31 12:00:00 TS 9.42857 146.257 1000 tokyo main 1289 1289 OOOO_____OOO__ jtwc_wp WP101962 9.10000 146.300 30 -1 11.0000 146.000 2 1000 0 0 0 9.30000 146.400 1 29 1000 9.30000 146.200 TD 25 1000 9.10000 146.300 TC 30 9.10000 146.300 1 30 9.10000 146.300 30 994 300 13 278
1962211N09153 1962 57 WP MM OPAL 1962-07-31 15:00:00 TS 9.49684 145.594 main 1304 1304 PPPP_____PPP__ WP101962 9.19236 145.678 30 -1 10.9999 145.156 2 1000 0 0 9.38495 145.715 1 29 1000 9.35007 145.528 TD 27 1000 9.19236 145.678 TC 30 9.16583 145.726 1 28 9.19236 145.678 30 993 300 13 277
1962211N09153 1962 57 WP MM OPAL 1962-07-31 18:00:00 TS 9.57920 144.951 1000 tokyo main 1322 1322 OOOO_____OPO__ jtwc_wp WP101962 9.30000 145.100 30 -1 11.0000 144.300 2 1000 0 0 0 9.50000 145.000 1 29 1000 9.40000 144.900 TD 30 1000 9.30000 145.100 TC 30 9.25442 145.157 1 27 9.30000 145.100 30 993 300 13 281
1962211N09153 1962 57 WP MM OPAL 1962-07-31 21:00:00 TS 9.73574 144.340 main 1346 1346 PPPP_____PPP__ WP101962 9.38488 144.542 27 -1 11.5527 143.426 2 1000 0 0 9.64995 144.285 1 29 1000 9.42714 144.457 TD 30 1000 9.38488 144.542 TC 27 9.36581 144.585 1 26 9.38488 144.542 27 992 300 12 285
1962211N09153 1962 57 WP MM OPAL 1962-08-01 00:00:00 TS 9.90000 143.757 1000 tokyo main 1379 1379 OOOO_____OOO__ jtwc_wp WP101962 9.50000 144.000 25 -1 12.0000 142.700 2 1000 0 0 0 9.80000 143.600 1 29 1000 9.50000 144.000 TD 30 1000 9.50000 144.000 TC 25 9.50000 144.000 1 25 9.50000 144.000 25 992 300 12 284
1962211N09153 1962 57 WP MM OPAL 1962-08-01 03:00:00 TS 10.0062 143.199 main 1407 1402 PPPP_____PPP__ WP101962 9.69230 143.473 25 -1 11.7395 142.304 2 1000 0 0 9.89981 142.985 1 33 997 9.67769 143.315 TD 30 1000 9.69230 143.473 TC 25 9.64941 143.369 1 27 9.69230 143.473 25 991 300 11 280
1962211N09153 1962 57 WP MM OPAL 1962-08-01 06:00:00 TS 10.1029 142.633 1000 tokyo main 1398 1387 OOOO_____OPO__ jtwc_wp WP101962 9.90000 142.900 25 -1 11.3000 142.000 2 1000 0 0 0 10.0000 142.400 2 38 995 9.90000 142.600 TD 30 1000 9.90000 142.900 TC 25 9.82009 142.728 1 30 9.90000 142.900 25 990 300 12 280
1962211N09153 1962 57 WP MM OPAL 1962-08-01 09:00:00 TS 10.2165 142.012 main 1387 1379 PPPP_____PPP__ WP101962 10.0426 142.207 30 -1 11.1475 141.523 2 1000 0 0 10.1349 141.800 2 43 995 10.0997 142.042 TD 32 999 10.0426 142.207 TC 30 10.0057 142.097 1 32 10.0426 142.207 30 989 270 13 282
1962211N09153 1962 57 WP MM OPAL 1962-08-01 12:00:00 TS 10.3571 141.386 1000 tokyo main 1390 1377 OOOO_____OOO__ jtwc_wp WP101962 10.2000 141.500 35 0 11.1000 141.000 2 1000 0 0 0 10.3000 141.200 3 48 995 10.3000 141.500 TS 35 998 10.2000 141.500 TC 35 10.2000 141.500 2 35 10.2000 141.500 35 989 240 13 285
1962211N09153 1962 57 WP MM OPAL 1962-08-01 15:00:00 TS 10.5343 140.775 main 1377 1373 PPPP_____PPP__ WP101962 10.4499 140.855 40 -1 11.0775 140.478 2 1000 0 0 10.4776 140.562 3 48 995 10.5075 140.858 TS 40 997 10.4499 140.855 TC 40 10.3274 140.959 2 40 10.4499 140.855 40 988 240 12 288
1962211N09153 1962 57 WP MM OPAL 1962-08-01 18:00:00 TS 10.7246 140.222 1000 tokyo main 1373 1369 OOOO_____OPO__ jtwc_wp WP101962 10.7000 140.300 45 0 11.1000 140.000 2 1000 0 0 0 10.7000 140.000 3 48 995 10.7000 140.200 TS 45 997 10.7000 140.300 TC 45 10.4720 140.453 2 45 10.7000 140.300 45 988 240 10 287
1962211N09153 1962 57 WP MM OPAL 1962-08-01 21:00:00 TS 10.8428 139.773 main 1369 1369 PPPP_____PPP__ WP101962 10.7973 139.877 50 -1 11.0673 139.642 2 997 0 0 10.9623 139.620 3 53 992 10.7976 139.547 TS 50 996 10.7973 139.877 TC 50 10.6806 139.971 2 50 10.7973 139.877 50 987 240 9 293
1962211N09153 1962 57 WP MM OPAL 1962-08-02 00:00:00 TS 11.0714 139.371 995 tokyo main 1387 1384 OOOO_____OOO__ jtwc_wp WP101962 11.0000 139.500 55 0 11.2000 139.300 2 995 0 0 0 11.3000 139.300 3 58 990 11.0000 139.000 STS 55 995 11.0000 139.500 TC 55 11.0000 139.500 2 55 11.0000 139.500 55 987 240 11 312
1962211N09153 1962 57 WP MM OPAL 1962-08-02 03:00:00 TS 11.5668 138.968 main 1425 1391 PPPP_____PPP__ WP101962 11.5324 139.065 62 -1 11.6749 138.888 2 992 0 0 11.7048 138.937 3 63 988 11.4822 138.677 STS 60 993 11.5324 139.065 TC 62 11.5083 139.078 2 59 11.5324 139.065 62 986 240 14 324
1962211N09153 1962 57 WP MM OPAL 1962-08-02 06:00:00 TS 12.1890 138.536 990 tokyo main 1386 1352 OOOO_____OPO__ jtwc_wp WP101962 12.2000 138.600 70 1 12.3000 138.400 9 990 0 0 0 12.2000 138.500 4 68 986 12.1000 138.400 T 65 992 12.2000 138.600 TC 70 12.1232 138.654 2 63 12.2000 138.600 70 986 240 15 324
1962211N09153 1962 57 WP MM OPAL 1962-08-02 09:00:00 TS 12.7893 138.063 main 1354 1300 PPPP_____PPP__ WP101962 12.8071 138.152 70 -1 12.8499 137.830 9 990 0 0 12.7924 137.945 4 68 985 12.6846 138.032 T 65 991 12.8071 138.152 TC 70 12.7766 138.178 2 67 12.8071 138.152 71 984 240 16 319
1962211N09153 1962 57 WP MM OPAL 1962-08-02 12:00:00 TS 13.3857 137.486 990 tokyo main 1300 1238 OOOO_____OOO__ jtwc_wp WP101962 13.4000 137.600 70 1 13.4000 137.200 9 990 0 0 0 13.4000 137.300 4 68 984 13.3000 137.500 T 65 990 13.4000 137.600 TC 70 13.4000 137.600 3 72 13.4000 137.600 72 983 240 17 313
1962211N09153 1962 57 WP MM OPAL 1962-08-02 15:00:00 TS 13.9620 136.763 main 1240 1163 PPPP_____PPP__ WP101962 13.9875 136.860 75 -1 13.9646 136.587 9 990 0 0 13.9297 136.637 4 72 983 13.9952 136.711 T 67 987 13.9875 136.860 TC 75 13.8822 136.829 3 74 13.9875 136.860 75 982 240 19 306
1962211N09153 1962 57 WP MM OPAL 1962-08-02 18:00:00 TS 14.4749 135.937 990 tokyo main 1154 1078 OOOO_____OPO__ jtwc_wp WP101962 14.5000 136.000 80 1 14.5000 135.900 9 990 0 0 0 14.4000 135.900 4 77 982 14.6000 135.800 T 70 985 14.5000 136.000 TC 80 14.3243 135.959 3 77 14.5000 136.000 78 981 240 19 298
1962211N09153 1962 57 WP MM OPAL 1962-08-02 21:00:00 TS 14.8561 135.046 main 1070 998 PPPP_____PPP__ WP101962 14.8502 135.077 80 -1 14.9577 135.057 9 987 0 0 14.7927 135.050 4 77 980 14.9374 134.927 T 72 985 14.8502 135.077 TC 80 14.7541 135.060 3 79 14.8502 135.077 80 979 270 19 294
1962211N09153 1962 57 WP MM OPAL 1962-08-03 00:00:00 TS 15.2286 134.186 985 tokyo main 998 948 OOOO_____OOO__ jtwc_wp WP101962 15.2000 134.200 80 1 15.4000 134.200 9 985 0 0 0 15.2000 134.200 4 77 979 15.2000 134.100 T 75 985 15.2000 134.200 TC 80 15.2000 134.200 4 82 15.2000 134.200 82 978 300 18 300
1962211N09153 1962 57 WP MM OPAL 1962-08-03 03:00:00 TS 15.7274 133.477 main 948 914 PPPP_____PPP__ WP101962 15.7269 133.520 85 -1 15.8997 133.462 9 982 0 0 15.7346 133.470 4 82 977 15.5546 133.377 T 77 982 15.7269 133.520 TC 85 15.7222 133.474 4 84 15.7269 133.520 85 974 300 17 308
1962211N09153 1962 57 WP MM OPAL 1962-08-03 06:00:00 TS 16.2661 132.828 980 tokyo main 910 880 OOOO_____OPO__ jtwc_wp WP101962 16.3000 132.900 90 2 16.4000 132.800 9 980 0 0 0 16.3000 132.800 5 87 975 16.0000 132.700 T 80 980 16.3000 132.900 TC 90 16.2630 132.797 4 87 16.3000 132.900 88 971 300 17 310
1962211N09153 1962 57 WP MM OPAL 1962-08-03 09:00:00 TS 16.7866 132.158 main 886 850 PPPP_____PPP__ WP101962 16.8149 132.200 90 -1 16.8492 132.229 9 977 0 0 16.8221 132.150 5 87 973 16.5924 131.985 T 82 977 16.8149 132.200 TC 90 16.7974 132.146 4 89 16.8149 132.200 90 968 300 16 308
1962211N09153 1962 57 WP MM OPAL 1962-08-03 12:00:00 TS 17.2857 131.486 975 tokyo main 850 806 OOOO_____OOO__ jtwc_wp WP101962 17.3000 131.500 90 2 17.3000 131.600 9 975 0 0 0 17.3000 131.500 5 87 972 17.2000 131.300 ST 85 975 17.3000 131.500 TC 90 17.3000 131.500 4 92 17.3000 131.500 92 965 300 16 307
1962211N09153 1962 57 WP MM OPAL 1962-08-03 15:00:00 TS 17.7545 130.794 main 811 776 PPPP_____PPP__ WP101962 17.7721 130.850 95 -1 17.8234 130.678 9 972 0 0 17.7150 130.792 5 92 970 17.6794 130.714 ST 87 972 17.7721 130.850 TC 95 17.7474 130.824 4 94 17.7721 130.850 95 962 300 16 304
1962211N09153 1962 57 WP MM OPAL 1962-08-03 18:00:00 TS 18.1799 130.107 970 tokyo main 776 749 OOOO_____OPO__ jtwc_wp WP101962 18.2000 130.200 100 3 18.3000 129.800 9 970 0 0 0 18.1000 130.100 5 97 968 18.1000 130.100 ST 90 970 18.2000 130.200 TC 100 18.1590 130.149 4 97 18.2000 130.200 98 959 300 15 302
1962211N09153 1962 57 WP MM OPAL 1962-08-03 21:00:00 TS 18.5552 129.447 main 749 687 PPPP_____PPP__ WP101962 18.5648 129.507 100 -1 18.6214 129.319 9 967 0 0 18.5069 129.507 5 97 965 18.5228 129.308 ST 92 967 18.5648 129.507 TC 100 18.5411 129.474 4 99 18.5648 129.507 100 955 270 14 300
1962211N09153 1962 57 WP MM OPAL 1962-08-04 00:00:00 TS 18.9000 128.786 965 tokyo main 687 617 OOOO_____OOO__ jtwc_wp WP101962 18.9000 128.800 100 3 18.9000 128.900 9 965 0 0 0 18.9000 128.900 5 97 963 18.9000 128.500 ST 95 965 18.9000 128.800 TC 100 18.9000 128.800 4 102 18.9000 128.800 102 952 240 15 298
1962211N09153 1962 57 WP MM OPAL 1962-08-04 03:00:00 TS 19.2487 128.083 main 617 552 PPPP_____PPP__ WP101962 19.2573 128.092 105 -1 19.2502 128.230 9 957 0 0 19.2651 128.157 5 101 958 19.2071 127.819 ST 97 957 19.2573 128.092 TC 105 19.2465 128.096 4 104 19.2573 128.092 105 947 240 15 297
1962211N09153 1962 57 WP MM OPAL 1962-08-04 06:00:00 TS 19.5818 127.385 950 tokyo main 552 498 OOOO_____OPO__ jtwc_wp WP101962 19.6000 127.400 110 3 19.6000 127.500 9 950 0 0 0 19.6000 127.400 6 106 953 19.5000 127.200 SuperT 100 950 19.6000 127.400 TC 110 19.5725 127.397 4 107 19.6000 127.400 108 942 240 14 297
1962211N09153 1962 57 WP MM OPAL 1962-08-04 09:00:00 TS 19.8930 126.719 main 491 446 PPPP_____PPP__ WP101962 19.9073 126.727 110 -1 19.9073 126.827 9 942 0 0 19.8997 126.720 6 111 945 19.8349 126.577 SuperT 102 942 19.9073 126.727 TC 110 19.8872 126.724 4 109 19.9073 126.727 110 937 270 14 297
1962211N09153 1962 57 WP MM OPAL 1962-08-04 12:00:00 TS 20.2000 126.100 935 tokyo main 446 418 OOOO_____OOO__ jtwc_wp WP101962 20.2000 126.100 110 3 20.2000 126.200 9 935 0 0 0 20.2000 126.100 6 116 937 20.2000 126.000 SuperT 105 935 20.2000 126.100 TC 110 20.2000 126.100 4 112 20.2000 126.100 112 933 300 13 299
1962211N09153 1962 57 WP MM OPAL 1962-08-04 15:00:00 TS 20.5145 125.538 main 409 389 PPPP_____PPP__ WP101962 20.4923 125.520 115 -1 20.4922 125.635 9 927 0 0 20.5496 125.542 6 121 928 20.5997 125.492 SuperT 107 930 20.4923 125.520 TC 115 20.4834 125.536 4 117 20.4923 125.520 116 928 300 12 302
1962211N09153 1962 57 WP MM OPAL 1962-08-04 18:00:00 TS 20.8391 125.018 920 tokyo main 389 379 OOOO_____OPO__ jtwc_wp WP101962 20.8000 125.000 120 4 20.8000 125.100 9 920 0 0 0 20.9000 125.000 6 126 920 21.0000 125.000 SuperT 110 925 20.8000 125.000 TC 120 20.7738 125.022 4 122 20.8000 125.000 120 924 300 12 304
1962211N09153 1962 57 WP MM OPAL 1962-08-04 21:00:00 TS 21.1595 124.505 main 380 321 PPPP_____PPP__ WP101962 21.1198 124.535 125 -1 21.1347 124.565 9 915 0 0 21.1701 124.377 6 135 914 21.3500 124.442 SuperT 117 917 21.1198 124.535 TC 125 21.1024 124.548 4 127 21.1198 124.535 126 919 270 12 306
1962211N09153 1962 57 WP MM OPAL 1962-08-05 00:00:00 TS 21.5286 124.014 910 tokyo main 321 262 OOOO_____OOO__ jtwc_wp WP101962 21.5000 124.100 130 4 21.5000 124.000 9 910 0 0 0 21.5000 123.800 6 145 908 21.7000 123.900 SuperT 125 910 21.5000 124.100 TC 130 21.5000 124.100 4 132 21.5000 124.100 132 915 240 12 311
1962211N09153 1962 57 WP MM OPAL 1962-08-05 03:00:00 TS 21.9604 123.530 main 248 186 PPPP_____PPP__ WP101962 21.9325 123.642 137 -1 21.8555 123.298 9 905 0 0 21.9818 123.414 6 145 904 22.0550 123.405 SuperT 127 910 21.9325 123.642 TC 137 22.0104 123.669 4 135 21.9550 123.642 138 915 240 13 318
1962211N09153 1962 57 WP MM OPAL 1962-08-05 06:00:00 TS 22.4984 123.080 900 tokyo main 186 132 OOOO_____OPO__ jtwc_wp WP101962 22.5000 123.200 145 5 22.3000 122.700 9 900 0 0 0 22.6000 123.000 6 145 900 22.5000 123.000 SuperT 130 910 22.5000 123.200 TC 145 22.5888 123.256 4 138 22.5000 123.200 145 916 240 15 328
1962211N09153 1962 57 WP MM OPAL 1962-08-05 09:00:00 TS 23.1939 122.710 main 132 74 PPPP_____PPP__ WP101962 23.3068 122.845 145 -1 22.9266 122.498 9 905 0 0 23.3657 122.302 6 135 910 23.1192 122.794 SuperT 127 910 23.3068 122.845 TC 145 23.1978 122.841 4 141 23.1343 122.844 145 923 240 16 333
1962211N09153 1962 57 WP MM OPAL 1962-08-05 12:00:00 TS 23.9000 122.286 910 tokyo main 74 0 OOOO_____OOO__ jtwc_wp WP101962 24.1000 122.400 XX 145 -5 23.6000 122.300 9 910 0 0 0 24.1000 121.600 6 126 920 23.8000 122.500 SuperT 125 910 24.1000 122.400 TC 145 23.8000 122.400 4 145 23.8000 122.400 145 930 240 16 322
1962211N09153 1962 57 WP MM OPAL 1962-08-05 15:00:00 TS 24.4500 121.633 main 0 0 PPPP_____PPP__ WP101962 24.6036 121.635 130 -1 24.1583 121.681 9 925 0 0 24.5869 121.154 6 116 930 24.4235 121.789 SuperT 102 925 24.6036 121.635 TC 130 24.3434 121.899 4 128 24.4311 121.636 130 936 240 16 311
1962211N09153 1962 57 WP MM OPAL 1962-08-05 18:00:00 TS 24.9389 120.982 940 tokyo main 0 0 OOOO_____OPO__ jtwc_wp WP101962 25.0000 120.900 115 -1 24.7000 121.000 9 940 0 0 0 25.0000 120.800 6 106 940 25.0000 121.000 T 80 940 25.0000 120.900 TC 115 24.8725 121.372 4 112 25.0000 120.900 115 943 240 14 315
1962211N09153 1962 57 WP MM OPAL 1962-08-05 21:00:00 TS 25.4338 120.561 main 60 49 PPPP_____PPP__ WP101962 25.4491 120.561 97 -1 25.2843 120.584 9 950 0 0 25.4850 120.385 6 91 952 25.5071 120.439 T 72 950 25.4491 120.561 TC 97 25.3903 120.833 4 96 25.4716 120.561 97 949 240 12 324
1962211N09153 1962 57 WP MM OPAL 1962-08-06 00:00:00 TS 25.9286 120.200 960 tokyo main 49 0 OOOO_____OOO__ jtwc_wp WP101962 25.9000 120.300 80 -1 25.9000 120.200 9 960 0 0 0 26.0000 120.000 4 77 965 26.0000 120.000 T 65 960 25.9000 120.300 TC 80 25.9000 120.300 4 80 25.9000 120.300 80 956 240 12 324
1962211N09153 1962 57 WP MM OPAL 1962-08-06 03:00:00 TS 26.4264 119.745 main 9 0 PPPP_____PPP__ WP101962 26.3351 119.830 70 -1 26.5354 119.628 9 965 0 0 26.5049 119.677 4 67 969 26.5347 119.634 T 55 970 26.3351 119.830 TC 70 26.4048 119.784 4 72 26.3351 119.830 70 961 240 13 322
1962211N09153 1962 57 WP MM OPAL 1962-08-06 06:00:00 TS 26.9661 119.283 970 tokyo main 0 0 OOOO_____OPO__ jtwc_wp WP101962 26.8000 119.300 60 -1 27.2000 119.100 9 970 0 0 0 27.1000 119.400 3 58 974 27.1000 119.300 TS 45 980 26.8000 119.300 TC 60 26.9059 119.283 4 65 26.8000 119.300 60 966 240 13 324
1962211N09153 1962 57 WP MM OPAL 1962-08-06 09:00:00 TS 27.4870 118.868 main 0 0 PPPP_____PPP__ WP101962 27.1851 118.783 55 -1 27.8172 118.789 9 980 0 0 27.8097 119.178 3 37 981 27.5578 118.884 TS 45 985 27.1851 118.783 TC 55 27.4041 118.791 4 57 27.3302 118.791 55 971 240 15 331
1962211N09153 1962 57 WP MM OPAL 1962-08-06 12:00:00 TS 28.2455 118.500 990 tokyo main 0 0 OOOO_____OOO__ jtwc_wp WP101962 27.9000 118.300 50 -1 28.6000 118.600 9 990 0 0 0 28.7000 118.900 0 17 988 28.3000 118.500 TS 45 990 27.9000 118.300 TC 50 27.9000 118.300 2 50 27.9000 118.300 50 976 240 22 342
1962211N09153 1962 57 WP MM OPAL 1962-08-06 15:00:00 TS 29.5609 118.120 main 0 0 PPPP_____P____ WP101962 29.2332 117.793 45 -1 29.7700 118.435 9 991 0 0 29.8057 118.388 0 18 988 29.7625 118.192 TS 40 991 29.2332 117.793 TC 45 2 29 348
1962211N09153 1962 57 WP MM OPAL 1962-08-06 18:00:00 TS 31.0600 117.840 992 tokyo main 0 0 OOOO_____O____ jtwc_wp WP101962 31.0000 117.500 40 -1 31.0000 118.300 9 992 0 0 0 31.0000 117.900 0 19 988 31.3000 118.000 TS 35 992 31.0000 117.500 TC 40 2 29 355
1962211N09153 1962 57 WP MM OPAL 1962-08-06 21:00:00 TS 32.4854 117.799 main 0 0 PPPP_____P____ WP101962 33.0077 117.682 35 -1 31.9524 118.091 9 992 0 0 32.1820 117.622 0 21 988 32.2771 117.917 TS 35 992 33.0077 117.682 TC 35 2 28 1
1962211N09153 1962 57 WP MM OPAL 1962-08-07 00:00:00 TS 33.8000 117.920 992 tokyo main 0 0 OOOO_____O____ jtwc_wp WP101962 35.0000 118.000 30 -1 32.8000 118.000 9 992 0 0 0 33.2000 117.600 1 23 988 33.0000 118.000 TS 35 992 35.0000 118.000 TC 30 24 4
1962211N09153 1962 57 WP MM OPAL 1962-08-07 03:00:00 TS 34.8478 118.003 main 0 0 PPPP_____P____ WP101962 36.4991 117.936 30 -1 33.6944 118.123 9 992 0 0 33.8590 117.794 1 23 988 33.6873 118.225 TS 32 992 36.4991 117.936 TC 30 18 10
1962211N09153 1962 57 WP MM OPAL 1962-08-07 06:00:00 TS 35.6000 118.311 992 tokyo main 0 0 OOOO_____O____ jtwc_wp WP101962 38.0000 118.000 30 -1 34.5000 118.500 9 992 0 0 0 34.4000 118.300 1 23 988 34.3000 118.600 TD 30 992 38.0000 118.000 TC 30 16 28
1962211N09153 1962 57 WP MM OPAL 1962-08-07 09:00:00 TS 36.2304 118.914 main 0 0 PPPP_____P____ WP101962 39.8776 118.567 30 -1 35.0908 119.039 9 991 0 0 35.0697 119.074 1 30 988 34.8834 118.976 TD 30 992 39.8776 118.567 TC 30 16 51
1962211N09153 1962 57 WP MM OPAL 1962-08-07 12:00:00 TS 36.5714 119.814 990 tokyo main 0 0 OOOO_____O____ jtwc_wp WP101962 42.0000 119.500 30 -1 35.7000 119.900 9 990 0 0 0 35.8000 120.100 2 38 988 35.5000 119.600 TD 30 992 42.0000 119.500 TC 30 17 81
1962211N09153 1962 57 WP MM OPAL 1962-08-07 15:00:00 TS 36.4840 121.013 main 0 0 _PPP__________ WP101962 -1 36.6029 121.199 9 989 0 0 36.6073 121.247 2 38 988 36.2418 120.593 TD 32 991 TC 21 70
1962211N09153 1962 57 WP MM OPAL 1962-08-07 18:00:00 TS 37.3000 122.333 988 tokyo main 0 0 _OOO__________ -1 37.5000 122.600 9 988 0 0 0 37.4000 122.500 2 38 988 37.0000 121.900 TS 35 990 25 53
1962211N09153 1962 57 WP MM OPAL 1962-08-07 21:00:00 TS 38.0017 123.513 main 105 17 _PPP__________ -1 38.2349 123.505 9 988 0 0 38.0987 123.671 2 38 988 37.6714 123.362 TS 35 989 24 58
1962211N09153 1962 57 WP MM OPAL 1962-08-08 00:00:00 TS 38.5667 124.867 988 tokyo main 14 0 _OOO__________ -1 38.7000 124.600 9 988 0 0 0 38.7000 125.000 2 38 988 38.3000 125.000 TS 35 988 27 69
1962211N09153 1962 57 WP MM OPAL 1962-08-08 03:00:00 TS 38.9369 126.708 main 0 0 _PPP__________ -1 38.6978 126.639 9 986 0 0 39.1820 126.714 2 38 988 38.9308 126.772 TS 35 987 29 77
1962211N09153 1962 57 WP MM OPAL 1962-08-08 06:00:00 TS 39.2333 128.533 984 tokyo main 54 54 _OOO__________ -1 38.6000 128.600 9 984 0 0 0 39.6000 128.500 2 38 988 39.5000 128.500 TS 35 987 25 75
1962211N09153 1962 57 WP MM OPAL 1962-08-08 09:00:00 TS 39.5852 129.779 main 116 116 _PPP__________ -1 38.7551 129.332 9 984 0 0 40.0315 130.041 2 38 988 39.9689 129.964 TS 37 986 21 66
1962211N09153 1962 57 WP MM OPAL 1962-08-08 12:00:00 TS 40.0667 131.000 984 tokyo main 134 134 _OOO__________ -1 39.3000 130.200 9 984 0 0 0 40.5000 131.500 2 38 988 40.4000 131.300 TS 40 986 26 63
1962211N09153 1962 57 WP MM OPAL 1962-08-08 15:00:00 TS 40.7819 132.803 main 211 158 _PPP__________ -1 40.4473 132.682 9 984 0 0 41.0419 133.037 2 38 988 40.8566 132.688 TS 40 985 31 62
1962211N09153 1962 57 WP MM OPAL 1962-08-08 18:00:00 TS 41.5000 134.600 984 tokyo main 162 161 _OOO__________ -1 41.6000 135.300 9 984 0 0 0 41.6000 134.500 2 38 988 41.3000 134.000 TS 40 985 26 62
1962211N09153 1962 57 WP MM OPAL 1962-08-08 21:00:00 TS 42.0302 135.907 main 179 169 _PPP__________ -1 42.2331 136.662 9 984 0 0 42.1518 135.862 2 43 988 41.7058 135.197 TS 42 984 19 61
1962211N09153 1962 57 WP MM OPAL 1962-08-09 00:00:00 ET 42.4333 136.900 984 tokyo main 190 171 _OOO__________ -1 42.6000 137.400 9 984 0 0 0 42.6000 137.000 9 48 988 42.1000 136.300 TS 45 984 15 63
1962211N09153 1962 57 WP MM OPAL 1962-08-09 03:00:00 ET 42.7363 137.773 main 163 118 _PPP__________ -1 42.8358 138.028 9 984 0 0 42.8356 137.858 9 48 986 42.5376 137.431 TS 45 983 13 65
1962211N09153 1962 57 WP MM OPAL 1962-08-09 06:00:00 ET 42.9667 138.467 984 tokyo main 114 91 _OOO__________ -1 43.0000 138.500 6 984 0 0 0 43.0000 138.500 9 48 985 42.9000 138.400 TS 45 983 10 64
1962211N09153 1962 57 WP MM OPAL 1962-08-09 09:00:00 ET 43.1895 139.040 main 93 57 _PPP__________ -1 43.2562 138.990 6 983 0 0 43.2414 139.058 9 48 983 43.0708 139.070 TS 47 982 9 62
1962211N09153 1962 57 WP MM OPAL 1962-08-09 12:00:00 ET 43.4000 139.600 982 tokyo main 57 27 _OOO__________ -1 43.5000 139.600 6 982 0 0 0 43.5000 139.600 9 48 982 43.2000 139.600 STS 50 982 9 65
1962211N09153 1962 57 WP MM OPAL 1962-08-09 15:00:00 ET 43.5808 140.199 main 34 19 _PPP__________ -1 43.6017 140.376 6 982 0 0 43.7319 140.160 9 48 982 43.4088 140.061 STS 50 982 12 68
1962211N09153 1962 57 WP MM OPAL 1962-08-09 18:00:00 ET 43.8455 141.127 982 tokyo main 19 0 _OOO__________ -1 43.8000 141.500 6 982 0 0 0 44.0000 141.000 9 48 982 43.7000 140.800 STS 50 982 19 68
1962211N09153 1962 57 WP MM OPAL 1962-08-09 21:00:00 ET 44.2810 142.649 main 0 0 _PPP__________ -1 44.3324 143.189 6 983 0 0 44.3285 142.358 9 983 44.0834 142.152 STS 50 983 25 69
1962211N09153 1962 57 WP MM OPAL 1962-08-10 00:00:00 ET 44.7667 144.433 984 tokyo main 79 77 _OOO__________ -1 44.9000 145.000 6 984 0 0 0 44.7000 144.000 9 984 44.5000 143.900 STS 50 984 26 70
1962211N09153 1962 57 WP MM OPAL 1962-08-10 03:00:00 ET 45.1793 146.059 main 88 44 _PP___________ -1 45.2422 146.417 6 984 0 0 45.1164 145.700 9 984 STS 22 71
1962211N09153 1962 57 WP MM OPAL 1962-08-10 06:00:00 ET 45.5000 147.450 984 tokyo main 38 27 _OO___________ -1 45.5000 147.600 6 984 0 0 0 45.5000 147.300 9 984 19 72
1962211N09153 1962 57 WP MM OPAL 1962-08-10 09:00:00 ET 45.7469 148.585 main 33 19 _PP___________ -1 45.7399 148.633 6 985 0 0 45.7539 148.537 9 985 16 72
1962211N09153 1962 57 WP MM OPAL 1962-08-10 12:00:00 ET 46.0000 149.600 986 tokyo main 18 7 _OO___________ -1 46.0000 149.600 6 986 0 0 0 46.0000 149.600 9 986 16 69
1962211N09153 1962 57 WP MM OPAL 1962-08-10 15:00:00 ET 46.3111 150.684 main 31 31 _PP___________ -1 46.3115 150.672 6 986 0 0 46.3108 150.695 9 986 17 65
1962211N09153 1962 57 WP MM OPAL 1962-08-10 18:00:00 ET 46.7000 151.800 986 tokyo main 125 125 _OO___________ -1 46.7000 151.800 6 986 0 0 0 46.7000 151.800 9 986 19 61
1962211N09153 1962 57 WP MM OPAL 1962-08-10 21:00:00 ET 47.2162 153.056 main 238 238 _PP___________ -1 47.2162 153.056 6 987 0 0 47.2162 153.056 9 987 19 58
1962211N09153 1962 57 WP MM OPAL 1962-08-11 00:00:00 ET 47.7000 154.200 988 tokyo main 269 224 _OO___________ -1 47.7000 154.200 6 988 0 0 0 47.7000 154.200 9 988 15 59
1962211N09153 1962 57 WP MM OPAL 1962-08-11 03:00:00 ET 47.9853 154.979 main 223 199 _PP___________ -1 47.9853 154.979 6 988 0 0 47.9853 154.979 9 988 11 62
1962211N09153 1962 57 WP MM OPAL 1962-08-11 06:00:00 ET 48.2000 155.600 988 tokyo main 200 182 _OO___________ -1 48.2000 155.600 6 988 0 0 0 48.2000 155.600 9 988 10 62
1962211N09153 1962 57 WP MM OPAL 1962-08-11 09:00:00 ET 48.4574 156.323 main 178 177 _PP___________ -1 48.4574 156.323 6 991 0 0 48.4574 156.323 9 991 11 62
1962211N09153 1962 57 WP MM OPAL 1962-08-11 12:00:00 ET 48.7000 157.000 994 tokyo main 184 180 _OO___________ -1 48.7000 157.000 6 994 0 0 0 48.7000 157.000 9 994 9 61
1962211N09153 1962 57 WP MM OPAL 1962-08-11 15:00:00 ET 48.8669 157.458 main 184 184 _PP___________ -1 48.8669 157.458 6 994 0 0 48.8669 157.458 9 994 8 61
1962211N09153 1962 57 WP MM OPAL 1962-08-11 18:00:00 ET 49.1000 158.100 994 tokyo main 199 199 _OO___________ -1 49.1000 158.100 6 994 0 0 0 49.1000 158.100 9 994 14 62
1962211N09153 1962 57 WP MM OPAL 1962-08-11 21:00:00 ET 49.5387 159.384 main 245 242 _PP___________ -1 49.5387 159.384 6 996 0 0 49.5387 159.384 9 996 20 63
1962211N09153 1962 57 WP MM OPAL 1962-08-12 00:00:00 ET 50.0000 160.800 998 tokyo main 269 269 _OO___________ -1 50.0000 160.800 6 998 0 0 0 50.0000 160.800 9 998 17 64
1962211N09153 1962 57 WP MM OPAL 1962-08-12 03:00:00 ET 50.3050 161.815 main 306 306 _PP___________ -1 50.3050 161.815 6 998 0 0 50.3050 161.815 9 998 13 64
1962211N09153 1962 57 WP MM OPAL 1962-08-12 06:00:00 ET 50.6000 162.700 998 tokyo main 329 326 _OO___________ -1 50.6000 162.700 6 998 0 0 0 50.6000 162.700 9 998 14 59
1962211N09153 1962 57 WP MM OPAL 1962-08-12 09:00:00 ET 50.9992 163.650 main 332 332 _PP___________ -1 50.9992 163.650 6 1000 0 0 50.9992 163.650 9 1000 14 56
1962211N09153 1962 57 WP MM OPAL 1962-08-12 12:00:00 ET 51.4000 164.600 1002 tokyo main 358 358 _OO___________ -1 51.4000 164.600 6 1002 0 0 0 51.4000 164.600 9 1002 14 59
1962211N09153 1962 57 WP MM OPAL 1962-08-12 15:00:00 ET 51.7065 165.545 main 396 396 _PP___________ -1 51.7065 165.545 6 1003 0 0 51.7065 165.545 9 1003 13 63
1962211N09153 1962 57 WP MM OPAL 1962-08-12 18:00:00 ET 52.0000 166.500 1004 tokyo main 416 416 _OO___________ -1 52.0000 166.500 6 1004 0 0 0 52.0000 166.500 9 1004 13 62
1962211N09153 1962 57 WP MM OPAL 1962-08-12 21:00:00 ET 52.3415 167.479 main 443 436 _PP___________ -1 52.3415 167.479 6 1004 0 0 52.3415 167.479 9 1004 14 60
1962211N09153 1962 57 WP MM OPAL 1962-08-13 00:00:00 ET 52.7000 168.500 1004 tokyo main 473 473 _OO___________ -1 52.7000 168.500 6 1004 0 0 0 52.7000 168.500 9 1004 15 61
1962211N09153 1962 57 WP MM OPAL 1962-08-13 03:00:00 ET 53.0571 169.593 main 519 519 _PP___________ -1 53.0571 169.593 6 1005 0 0 53.0571 169.593 9 1005 15 62
1962211N09153 1962 57 WP MM OPAL 1962-08-13 06:00:00 ET 53.4000 170.700 1006 tokyo main 558 558 _OO___________ -1 53.4000 170.700 6 1006 0 0 0 53.4000 170.700 9 1006 14 63
1962211N09153 1962 57 WP MM OPAL 1962-08-13 09:00:00 ET 53.7066 171.767 main 600 600 _PP___________ -1 53.7066 171.767 6 1006 0 0 53.7066 171.767 9 1006 14 64
1962211N09153 1962 57 WP MM OPAL 1962-08-13 12:00:00 ET 54.0000 172.800 1006 tokyo main 642 642 _OO___________ -1 54.0000 172.800 6 1006 0 0 0 54.0000 172.800 9 1006 13 64
1962211N09153 1962 57 WP MM OPAL 1962-08-13 15:00:00 ET 54.2989 173.803 main 654 642 _PP___________ -1 54.2988 173.802 6 1005 0 0 54.2991 173.804 9 1005 13 63
1962211N09153 1962 57 WP MM OPAL 1962-08-13 18:00:00 ET 54.6000 174.800 1004 tokyo main 645 638 _OO___________ -1 54.6000 174.800 6 1004 0 0 0 54.6000 174.800 9 1004 13 63
1962211N09153 1962 57 WP MM OPAL 1962-08-13 21:00:00 ET 54.9068 175.843 main 642 639 _P____________ -1 54.9068 175.843 6 1004 0 0 9 13 64
1962211N09153 1962 57 WP MM OPAL 1962-08-14 00:00:00 ET 55.2000 176.900 1004 tokyo main 650 648 _O____________ -1 55.2000 176.900 6 1004 0 0 0 13 66
1962211N09153 1962 57 WP MM OPAL 1962-08-14 03:00:00 ET 55.4416 177.953 main 674 665 _P____________ -1 55.4416 177.953 6 1004 0 0 13 67
1962211N09153 1962 57 WP MM OPAL 1962-08-14 06:00:00 ET 55.7000 179.000 1004 tokyo main 690 689 _O____________ -1 55.7000 179.000 6 1004 0 0 0 13 64
1962211N09153 1962 57 EP CP OPAL 1962-08-14 09:00:00 ET 56.0293 180.045 main 698 660 _P____________ -1 56.0293 -179.955 6 1004 0 0 14 59
1962211N09153 1962 57 EP CP OPAL 1962-08-14 12:00:00 ET 56.4000 181.100 main 661 _O____________ -1 56.4000 181.100 6 1004 0 0 0 14 58

Digital Typhoon Data and Search

About IBTrACS Database

This database is a web-friendly format of International Best Track Archive for Climate Stewardship (IBTrACS), a global best track data archive curated by NOAA dating back to 1842.

Updated: 2021-10-19